Time;durP1;ratioP1;P1;durP2;ratioP2;P2;SDS_P1;SDS_P2;PMS_P1;PMS_P2;Temp;Humidity;BMP_temperature;BMP_pressure;BME280_temperature;BME280_humidity;BME280_pressure;Samples;Min_cycle;Max_cycle;Signal;HPM_P1;HPM_P2
2021/10/07 00:00:09;;;;;;;19.25;11.53;;;;;;;12.43;68.06;101532.23;1749662;80;25886;-81
2021/10/07 00:02:40;;;;;;;16.52;10.90;;;;;;;12.42;67.97;101534.61;1751324;80;25827;-80
2021/10/07 00:05:09;;;;;;;16.20;10.45;;;;;;;12.38;67.82;101533.61;1686849;80;25834;-81
2021/10/07 00:07:37;;;;;;;20.77;11.43;;;;;;;12.36;67.82;101527.58;1699521;80;26241;-80
2021/10/07 00:10:06;;;;;;;21.50;11.85;;;;;;;12.35;67.88;101531.29;1752586;80;27561;-81
2021/10/07 00:12:33;;;;;;;16.95;11.10;;;;;;;12.34;67.70;101526.91;1722156;80;25405;-81
2021/10/07 00:15:00;;;;;;;19.50;10.72;;;;;;;12.33;67.58;101527.09;1738686;80;25931;-81
2021/10/07 00:17:27;;;;;;;17.20;10.53;;;;;;;12.31;67.62;101530.47;1687418;82;25997;-81
2021/10/07 00:19:54;;;;;;;18.17;10.53;;;;;;;12.28;67.33;101531.65;1721941;80;26020;-81
2021/10/07 00:22:21;;;;;;;19.90;11.97;;;;;;;12.27;67.52;101526.46;1688628;82;27553;-81
2021/10/07 00:24:48;;;;;;;17.80;10.35;;;;;;;12.26;67.61;101522.09;1696814;81;25947;-81
2021/10/07 00:27:15;;;;;;;14.87;10.50;;;;;;;12.26;67.49;101528.80;1725638;80;25900;-81
2021/10/07 00:29:47;;;;;;;20.35;10.45;;;;;;;12.26;67.53;101522.09;1761232;80;25764;-81
2021/10/07 00:32:24;;;;;;;16.87;10.45;;;;;;;12.27;67.59;101525.93;1692557;80;25336;-81
2021/10/07 00:40:08;;;;;;;18.02;10.25;;;;;;;12.21;67.04;101533.35;1751146;80;25875;-81
2021/10/07 00:42:35;;;;;;;16.48;9.63;;;;;;;12.19;67.12;101539.41;1767415;80;34811;-81
2021/10/07 00:45:04;;;;;;;16.42;9.33;;;;;;;12.16;67.26;101530.88;1672948;80;25433;-81
2021/10/07 00:47:31;;;;;;;16.48;10.75;;;;;;;12.15;67.07;101543.95;1765374;80;27452;-80
2021/10/07 00:49:58;;;;;;;15.93;9.45;;;;;;;12.13;67.00;101538.77;1741642;80;26580;-80
2021/10/07 00:52:26;;;;;;;14.35;9.58;;;;;;;12.12;67.09;101545.16;1661901;81;25722;-81
2021/10/07 00:54:55;;;;;;;17.77;9.78;;;;;;;12.12;67.02;101543.82;1723876;81;25911;-80
2021/10/07 00:57:23;;;;;;;22.75;9.88;;;;;;;12.11;66.95;101539.45;1759156;80;25940;-81
2021/10/07 00:59:52;;;;;;;19.67;9.60;;;;;;;12.12;66.75;101547.00;1775719;80;27516;-80
2021/10/07 01:02:19;;;;;;;17.80;10.20;;;;;;;12.10;66.83;101549.84;1668577;80;25361;-81
2021/10/07 01:04:47;;;;;;;16.67;9.73;;;;;;;12.11;66.82;101553.38;1692465;80;26030;-81
2021/10/07 01:07:16;;;;;;;19.82;10.28;;;;;;;12.10;66.73;101550.38;1769026;80;26881;-81
2021/10/07 01:09:44;;;;;;;15.03;9.35;;;;;;;12.10;66.66;101551.72;1747525;80;25762;-80
2021/10/07 01:12:12;;;;;;;15.63;9.85;;;;;;;12.09;66.76;101554.05;1686219;80;27574;-81
2021/10/07 01:14:53;;;;;;;14.07;9.48;;;;;;;12.07;66.66;101551.55;1675627;80;25811;-81
2021/10/07 01:17:25;;;;;;;18.25;9.83;;;;;;;12.07;66.67;101554.23;1721948;80;25773;-80
2021/10/07 01:19:55;;;;;;;18.60;10.03;;;;;;;12.05;66.69;101560.28;1746659;80;25918;-81
2021/10/07 01:22:24;;;;;;;17.55;9.20;;;;;;;12.02;66.62;101557.93;1694290;80;25832;-81
2021/10/07 01:24:51;;;;;;;16.17;10.10;;;;;;;12.02;66.86;101556.59;1675859;80;28076;-81
2021/10/07 01:27:23;;;;;;;15.55;9.65;;;;;;;12.00;66.75;101555.92;1764781;80;25356;-81
2021/10/07 01:29:56;;;;;;;21.05;9.68;;;;;;;12.02;66.84;101559.77;1746442;80;26013;-81
2021/10/07 01:32:24;;;;;;;14.07;8.93;;;;;;;12.01;66.75;101552.74;1732407;80;26502;-81
2021/10/07 01:34:51;;;;;;;18.60;9.45;;;;;;;12.00;66.76;101553.24;1695395;82;25841;-81
2021/10/07 01:37:18;;;;;;;17.07;9.55;;;;;;;11.99;66.78;101554.27;1750716;80;28287;-81
2021/10/07 01:39:46;;;;;;;17.07;9.20;;;;;;;12.00;66.71;101561.80;1746346;80;26026;-81
2021/10/07 01:42:13;;;;;;;14.20;8.35;;;;;;;11.97;66.62;101546.05;1744055;80;25845;-81
2021/10/07 01:44:40;;;;;;;15.32;9.30;;;;;;;11.96;66.68;101546.55;1675450;80;26054;-81
2021/10/07 01:47:07;;;;;;;16.50;9.85;;;;;;;11.94;66.63;101553.94;1744891;80;25776;-81
2021/10/07 01:49:34;;;;;;;14.58;9.73;;;;;;;11.91;66.46;101556.14;1746798;80;27586;-81
2021/10/07 01:52:01;;;;;;;20.92;11.85;;;;;;;11.89;66.67;101564.34;1698003;80;25348;-81
2021/10/07 01:54:28;;;;;;;17.32;9.68;;;;;;;11.89;66.74;101559.50;1717215;80;25827;-81
2021/10/07 01:56:55;;;;;;;13.40;8.75;;;;;;;11.89;66.67;101565.69;1759131;80;25780;-81
2021/10/07 01:59:22;;;;;;;18.48;10.32;;;;;;;11.86;66.50;101556.66;1707946;80;26064;-81
2021/10/07 02:01:49;;;;;;;14.28;9.00;;;;;;;11.84;66.57;101557.33;1690652;82;27520;-81
2021/10/07 02:04:16;;;;;;;14.85;8.70;;;;;;;11.81;66.55;101556.31;1751112;80;25835;-81
2021/10/07 02:06:43;;;;;;;13.30;8.80;;;;;;;11.79;66.56;101567.73;1725656;80;25976;-81
2021/10/07 02:09:10;;;;;;;13.72;9.33;;;;;;;11.77;66.56;101567.06;1743604;80;25708;-81
2021/10/07 02:11:37;;;;;;;27.07;8.83;;;;;;;11.77;66.60;101571.59;1703945;82;25322;-81
2021/10/07 02:14:05;;;;;;;13.68;9.23;;;;;;;11.78;66.54;101575.97;1752437;80;27626;-80
2021/10/07 02:16:33;;;;;;;16.30;8.95;;;;;;;11.75;66.32;101579.82;1743447;80;25853;-81
2021/10/07 02:19:01;;;;;;;13.62;9.38;;;;;;;11.72;66.19;101586.86;1680052;82;25878;-81
2021/10/07 02:21:28;;;;;;;16.65;8.85;;;;;;;11.70;66.23;101587.53;1674080;82;26436;-81
2021/10/07 02:23:55;;;;;;;16.70;8.65;;;;;;;11.69;66.37;101593.93;1752631;80;25809;-81
2021/10/07 02:26:22;;;;;;;15.08;9.53;;;;;;;11.67;66.41;101595.95;1760450;80;27102;-81
2021/10/07 02:28:49;;;;;;;19.25;10.15;;;;;;;11.68;66.34;101598.95;1682589;82;25947;-81
2021/10/07 02:31:17;;;;;;;15.58;8.73;;;;;;;11.67;66.31;101603.16;1721894;80;26592;-80
2021/10/07 02:33:44;;;;;;;12.68;8.45;;;;;;;11.63;66.13;101602.11;1739610;80;25899;-81
2021/10/07 02:36:11;;;;;;;15.55;8.35;;;;;;;11.62;66.15;101609.84;1713346;82;25918;-81
2021/10/07 02:38:38;;;;;;;17.70;8.80;;;;;;;11.62;66.10;101605.81;1748343;80;28177;-81
2021/10/07 02:41:05;;;;;;;18.35;9.80;;;;;;;11.62;66.09;101613.02;1697613;81;25947;-81
2021/10/07 02:43:32;;;;;;;15.43;9.33;;;;;;;11.60;66.12;101613.20;1759322;80;26554;-81
2021/10/07 02:45:59;;;;;;;15.65;9.68;;;;;;;11.58;66.04;101616.55;1716057;80;25839;-80
2021/10/07 02:48:26;;;;;;;13.95;9.88;;;;;;;11.56;65.68;101609.67;1738614;80;25876;-81
2021/10/07 02:50:53;;;;;;;15.18;9.33;;;;;;;11.53;65.92;101616.20;1717007;80;27476;-81
2021/10/07 02:53:21;;;;;;;14.23;9.40;;;;;;;11.52;66.12;101623.94;1751023;80;25858;-81
2021/10/07 02:55:48;;;;;;;16.62;9.30;;;;;;;11.53;66.01;101622.06;1702219;82;25941;-80
2021/10/07 02:58:16;;;;;;;15.43;9.58;;;;;;;11.50;65.98;101624.58;1674761;80;26405;-81
2021/10/07 03:00:43;;;;;;;13.70;8.88;;;;;;;11.51;66.01;101631.64;1733043;80;26555;-81
2021/10/07 03:03:10;;;;;;;19.00;9.30;;;;;;;11.51;65.92;101633.47;1747368;80;27551;-81
2021/10/07 03:05:37;;;;;;;17.23;8.93;;;;;;;11.52;65.97;101637.85;1722036;80;25345;-81
2021/10/07 03:08:05;;;;;;;14.80;9.33;;;;;;;11.53;66.00;101640.36;1701289;80;25956;-80
2021/10/07 03:10:33;;;;;;;15.23;8.38;;;;;;;11.52;66.07;101636.02;1697339;82;25827;-81
2021/10/07 03:13:00;;;;;;;15.45;9.20;;;;;;;11.51;65.85;101643.71;1746732;80;25985;-80
2021/10/07 03:15:27;;;;;;;20.20;10.15;;;;;;;11.49;65.91;101638.17;1724634;80;27537;-81
2021/10/07 03:17:54;;;;;;;15.85;9.40;;;;;;;11.49;65.89;101643.05;1738001;80;25893;-81
2021/10/07 03:20:21;;;;;;;19.35;8.98;;;;;;;11.51;66.08;101645.55;1699274;80;25791;-81
2021/10/07 03:22:48;;;;;;;14.23;9.38;;;;;;;11.50;66.06;101641.20;1723407;80;25773;-81
2021/10/07 03:25:15;;;;;;;16.75;9.33;;;;;;;11.48;65.90;101640.01;1725982;80;26669;-80
2021/10/07 03:27:42;;;;;;;16.07;11.08;;;;;;;11.47;65.83;101645.05;1709708;81;28350;-80
2021/10/07 03:30:10;;;;;;;18.50;9.55;;;;;;;11.42;65.74;101642.02;1685296;82;25515;-80
2021/10/07 03:32:37;;;;;;;18.62;9.60;;;;;;;11.40;66.01;101640.02;1746064;80;26438;-81
2021/10/07 03:35:05;;;;;;;15.38;8.85;;;;;;;11.40;65.95;101644.03;1759110;80;25871;-82
2021/10/07 03:37:32;;;;;;;15.78;9.75;;;;;;;11.37;65.92;101639.02;1703619;80;25747;-80
2021/10/07 03:39:59;;;;;;;14.38;9.03;;;;;;;11.36;65.92;101644.53;1703683;80;27454;-80
2021/10/07 03:42:26;;;;;;;17.45;8.43;;;;;;;11.35;65.92;101645.06;1754625;80;25795;-81
2021/10/07 03:44:54;;;;;;;15.35;8.68;;;;;;;11.35;65.85;101646.89;1754847;80;25876;-81
2021/10/07 03:47:21;;;;;;;15.00;9.53;;;;;;;11.33;65.88;101652.41;1711213;80;26550;-81
2021/10/07 03:49:48;;;;;;;16.02;9.90;;;;;;;11.33;65.82;101653.74;1706593;82;26142;-81
2021/10/07 03:52:16;;;;;;;14.90;9.60;;;;;;;11.33;65.87;101651.59;1723543;82;27605;-80
2021/10/07 03:54:44;;;;;;;19.85;8.93;;;;;;;11.31;65.96;101654.41;1705533;80;25352;-80
2021/10/07 03:57:11;;;;;;;13.85;9.10;;;;;;;11.32;66.05;101660.63;1742941;80;25778;-81
2021/10/07 03:59:38;;;;;;;15.63;9.68;;;;;;;11.29;65.98;101667.16;1705004;82;26032;-81
2021/10/07 04:02:05;;;;;;;15.93;8.70;;;;;;;11.28;65.96;101674.88;1648294;82;25898;-81
2021/10/07 04:04:32;;;;;;;17.30;9.20;;;;;;;11.29;65.89;101684.59;1749099;80;28164;-81
2021/10/07 04:07:03;;;;;;;20.88;9.20;;;;;;;11.28;65.84;101685.61;1761872;80;25896;-81
2021/10/07 04:09:31;;;;;;;17.17;8.55;;;;;;;11.29;65.75;101685.12;1699572;80;26745;-81
2021/10/07 04:12:00;;;;;;;11.80;8.43;;;;;;;11.28;65.95;101692.81;1690106;80;25758;-80
2021/10/07 04:14:27;;;;;;;12.70;8.78;;;;;;;11.28;65.76;101692.31;1754459;80;25351;-81
2021/10/07 04:16:54;;;;;;;14.45;9.50;;;;;;;11.27;65.71;101700.53;1748355;80;27417;-81
2021/10/07 04:19:22;;;;;;;19.75;10.00;;;;;;;11.22;65.67;101698.34;1735853;80;25825;-80
2021/10/07 04:21:49;;;;;;;17.48;8.80;;;;;;;11.20;65.76;101699.01;1677058;84;25887;-81
2021/10/07 04:24:16;;;;;;;11.38;7.97;;;;;;;11.19;65.54;101697.81;1701033;83;26605;-81
2021/10/07 04:26:43;;;;;;;16.73;8.73;;;;;;;11.18;65.37;101708.22;1724658;82;25936;-81
2021/10/07 04:29:10;;;;;;;16.62;9.95;;;;;;;11.14;65.56;101711.70;1718150;81;27595;-81
2021/10/07 04:31:38;;;;;;;18.57;9.25;;;;;;;11.12;65.58;101716.39;1732850;80;25868;-81
2021/10/07 04:34:07;;;;;;;13.78;9.13;;;;;;;11.08;65.47;101716.39;1744135;80;25854;-81
2021/10/07 04:36:35;;;;;;;14.65;9.45;;;;;;;11.05;65.39;101714.55;1760578;80;26529;-81
2021/10/07 04:39:03;;;;;;;14.10;9.60;;;;;;;11.05;65.39;101722.59;1735353;80;25926;-81
2021/10/07 04:41:30;;;;;;;15.28;9.73;;;;;;;11.02;65.32;101724.23;1714664;80;28257;-81
2021/10/07 04:43:57;;;;;;;15.10;10.40;;;;;;;11.01;65.22;101727.44;1758482;79;25495;-81
2021/10/07 04:46:24;;;;;;;18.85;10.18;;;;;;;11.00;65.37;101740.50;1753584;80;25774;-81
2021/10/07 04:48:54;;;;;;;21.62;11.78;;;;;;;10.99;65.34;101733.44;1716728;80;25918;-80
2021/10/07 04:51:20;;;;;;;17.82;9.73;;;;;;;10.99;65.32;101748.19;1717260;80;26284;-81
2021/10/07 04:53:47;;;;;;;23.67;10.38;;;;;;;10.98;65.28;101749.70;1722391;80;28302;-81
2021/10/07 04:56:14;;;;;;;16.90;10.90;;;;;;;10.92;65.17;101751.19;1757412;80;25835;-81
2021/10/07 04:58:42;;;;;;;18.48;9.78;;;;;;;10.88;65.06;101761.91;1674844;80;25858;-80
2021/10/07 05:01:09;;;;;;;16.55;10.28;;;;;;;10.86;65.23;101765.24;1706189;82;26387;-80
2021/10/07 05:03:36;;;;;;;19.95;9.33;;;;;;;10.84;65.21;101773.95;1721215;80;25879;-80
2021/10/07 05:06:03;;;;;;;20.02;10.20;;;;;;;10.83;65.29;101775.78;1746133;80;28069;-81
2021/10/07 05:08:30;;;;;;;20.23;9.78;;;;;;;10.82;65.27;101774.08;1670639;83;26595;-80
2021/10/07 05:10:57;;;;;;;16.50;9.83;;;;;;;10.82;65.05;101782.62;1678496;83;25885;-80
2021/10/07 05:13:24;;;;;;;18.75;10.75;;;;;;;10.80;65.02;101783.28;1716808;83;26534;-81
2021/10/07 05:15:51;;;;;;;14.35;10.20;;;;;;;10.79;64.83;101777.10;1728326;80;26026;-81
2021/10/07 05:18:18;;;;;;;17.73;9.68;;;;;;;10.76;64.75;101783.26;1686818;80;28186;-80
2021/10/07 05:20:46;;;;;;;17.12;10.40;;;;;;;10.72;64.89;101786.77;1678639;80;25933;-80
2021/10/07 05:23:13;;;;;;;16.12;10.25;;;;;;;10.68;64.91;101777.38;1751658;80;26139;-81
2021/10/07 05:25:40;;;;;;;17.27;10.20;;;;;;;10.69;64.90;101787.08;1753616;80;26512;-80
2021/10/07 05:28:07;;;;;;;15.88;10.05;;;;;;;10.68;64.67;101787.23;1702098;80;25815;-81
2021/10/07 05:30:35;;;;;;;19.27;10.85;;;;;;;10.68;64.93;101789.92;1677136;80;27498;-80
2021/10/07 05:33:02;;;;;;;19.82;10.68;;;;;;;10.68;65.14;101796.13;1753035;80;25973;-80
2021/10/07 05:35:29;;;;;;;16.30;10.05;;;;;;;10.69;65.12;101795.64;1748244;80;25609;-80
2021/10/07 05:37:56;;;;;;;17.92;10.55;;;;;;;10.68;64.88;101805.50;1738375;80;25871;-80
2021/10/07 05:40:23;;;;;;;17.70;10.50;;;;;;;10.67;64.93;101806.48;1717105;81;26021;-81
2021/10/07 05:42:50;;;;;;;20.40;8.95;;;;;;;10.65;64.91;101813.84;1744740;80;27506;-81
2021/10/07 05:45:17;;;;;;;18.07;9.80;;;;;;;10.65;64.95;101813.00;1743367;80;25842;-81
2021/10/07 05:47:44;;;;;;;16.05;9.55;;;;;;;10.66;64.91;101809.34;1731404;80;25955;-81
2021/10/07 05:50:12;;;;;;;11.80;8.90;;;;;;;10.67;65.02;101813.19;1670406;82;25983;-80
2021/10/07 05:52:39;;;;;;;15.05;9.75;;;;;;;10.70;64.89;101825.44;1748341;80;25802;-81
2021/10/07 05:55:07;;;;;;;16.30;10.23;;;;;;;10.67;64.64;101823.09;1756693;80;27525;-81
2021/10/07 05:57:34;;;;;;;21.02;10.05;;;;;;;10.65;64.60;101825.06;1735143;80;26623;-80
2021/10/07 06:00:02;;;;;;;15.35;8.80;;;;;;;10.64;64.69;101828.75;1722527;80;26511;-81
2021/10/07 06:02:31;;;;;;;15.85;9.40;;;;;;;10.64;64.79;101835.45;1748111;80;26039;-82
2021/10/07 06:04:58;;;;;;;17.85;9.60;;;;;;;10.62;64.81;101839.64;1751150;80;25801;-81
2021/10/07 06:07:26;;;;;;;12.23;8.23;;;;;;;10.63;64.62;101837.77;1689034;80;46218;-81
2021/10/07 06:09:53;;;;;;;12.45;9.53;;;;;;;10.61;64.58;101842.45;1670867;82;25913;-83
2021/10/07 06:12:22;;;;;;;14.95;10.13;;;;;;;10.60;64.66;101841.63;1707775;82;26642;-81
2021/10/07 06:14:49;;;;;;;15.98;9.30;;;;;;;10.60;64.67;101842.12;1722495;82;26289;-80
2021/10/07 06:17:16;;;;;;;17.07;9.70;;;;;;;10.58;64.62;101842.29;1737026;80;25929;-81
2021/10/07 06:19:46;;;;;;;17.10;10.20;;;;;;;10.58;64.49;101842.29;1669607;82;27439;-80
2021/10/07 06:22:13;;;;;;;13.88;8.83;;;;;;;10.60;64.82;101851.02;1726219;80;26027;-81
2021/10/07 06:24:40;;;;;;;14.83;10.23;;;;;;;10.64;64.79;101846.17;1755459;80;25319;-81
2021/10/07 06:27:07;;;;;;;13.00;9.30;;;;;;;10.65;64.68;101855.88;1726109;80;26717;-83
2021/10/07 06:29:34;;;;;;;16.17;9.38;;;;;;;10.67;64.93;101856.59;1681449;84;26012;-84
2021/10/07 06:32:01;;;;;;;14.68;9.05;;;;;;;10.68;64.67;101860.93;1682834;82;27353;-81
2021/10/07 06:34:28;;;;;;;15.35;9.23;;;;;;;10.70;64.59;101858.94;1746232;80;26556;-81
2021/10/07 06:36:55;;;;;;;16.40;9.43;;;;;;;10.70;64.48;101861.61;1721678;80;25935;-81
2021/10/07 06:39:23;;;;;;;20.05;9.35;;;;;;;10.68;64.34;101861.78;1742057;80;25965;-82
2021/10/07 06:41:49;;;;;;;15.93;9.18;;;;;;;10.70;64.27;101861.61;1711228;80;25754;-82
2021/10/07 06:44:19;;;;;;;14.05;9.43;;;;;;;10.70;64.01;101870.99;1745795;80;28181;-82
2021/10/07 06:46:46;;;;;;;21.90;9.58;;;;;;;10.70;64.31;101868.31;1702409;81;25824;-82
2021/10/07 06:49:13;;;;;;;17.17;9.83;;;;;;;10.72;64.04;101873.02;1706403;82;25821;-82
2021/10/07 06:51:40;;;;;;;12.75;9.98;;;;;;;10.71;63.84;101870.01;1726243;80;26555;-82
2021/10/07 06:54:07;;;;;;;15.38;9.83;;;;;;;10.70;63.67;101878.54;1746689;80;25815;-82
2021/10/07 06:56:34;;;;;;;17.12;9.23;;;;;;;10.68;63.92;101880.54;1726718;80;27550;-82
2021/10/07 06:59:01;;;;;;;16.67;9.95;;;;;;;10.68;63.99;101880.54;1698926;80;25897;-81
2021/10/07 07:01:30;;;;;;;16.80;8.90;;;;;;;10.67;63.70;101878.02;1716184;82;25356;-82
2021/10/07 07:03:58;;;;;;;15.48;10.23;;;;;;;10.67;63.70;101875.34;1757252;80;25821;-82
2021/10/07 07:06:28;;;;;;;15.30;9.63;;;;;;;10.69;63.85;101880.86;1694282;80;25539;-81
2021/10/07 07:08:55;;;;;;;16.85;10.53;;;;;;;10.72;63.84;101887.75;1724906;81;28134;-82
2021/10/07 07:11:25;;;;;;;15.32;9.40;;;;;;;10.75;63.89;101888.30;1697441;80;25934;-81
2021/10/07 07:13:51;;;;;;;13.20;9.60;;;;;;;10.80;63.87;101891.83;1754049;80;25831;-81
2021/10/07 07:16:18;;;;;;;12.75;9.63;;;;;;;10.84;63.63;101893.22;1710966;80;25852;-82
2021/10/07 07:18:45;;;;;;;20.62;10.43;;;;;;;10.84;63.77;101891.88;1685700;82;25960;-82
2021/10/07 07:21:12;;;;;;;15.45;9.15;;;;;;;10.88;63.91;101891.06;1708530;82;27929;-82
2021/10/07 07:23:39;;;;;;;17.92;9.40;;;;;;;10.93;63.90;101888.23;1746184;80;26417;-82
2021/10/07 07:26:06;;;;;;;16.12;9.70;;;;;;;10.98;63.94;101887.77;1727178;82;26235;-82
2021/10/07 07:28:34;;;;;;;20.92;10.45;;;;;;;11.03;63.32;101894.36;1731839;81;25842;-82
2021/10/07 07:31:01;;;;;;;16.87;9.63;;;;;;;11.00;63.14;101899.17;1711565;80;25850;-81
2021/10/07 07:33:28;;;;;;;16.20;10.00;;;;;;;11.02;63.50;101897.17;1680224;82;28287;-82
2021/10/07 07:35:55;;;;;;;13.62;9.25;;;;;;;11.02;63.34;101902.53;1753390;80;25747;-81
2021/10/07 07:38:22;;;;;;;26.45;9.95;;;;;;;10.96;63.11;101897.80;1664311;80;25902;-81
2021/10/07 07:40:50;;;;;;;18.52;10.03;;;;;;;10.90;63.33;101903.31;1729112;81;26728;-82
2021/10/07 07:43:20;;;;;;;18.30;9.40;;;;;;;10.92;63.57;101907.17;1746277;80;25353;-81
2021/10/07 07:45:50;;;;;;;16.50;9.98;;;;;;;10.91;63.21;101904.13;1742931;80;28219;-82
2021/10/07 07:48:18;;;;;;;16.00;9.30;;;;;;;10.96;63.13;101913.40;1722924;80;26185;-81
2021/10/07 07:50:45;;;;;;;19.65;9.70;;;;;;;10.96;63.13;101913.40;1743317;80;25860;-81
2021/10/07 07:53:12;;;;;;;17.60;9.05;;;;;;;11.05;63.51;101910.28;1724661;81;25849;-82
2021/10/07 07:55:40;;;;;;;13.55;8.73;;;;;;;11.13;63.19;101908.98;1751421;80;26472;-82
2021/10/07 07:58:09;;;;;;;22.32;10.60;;;;;;;11.14;63.37;101916.86;1743436;81;28071;-82
2021/10/07 08:00:36;;;;;;;19.87;9.93;;;;;;;11.19;63.02;101916.38;1709187;82;25373;-82
2021/10/07 08:03:03;;;;;;;19.12;9.83;;;;;;;11.25;63.25;101914.40;1763526;80;25338;-82
2021/10/07 08:05:31;;;;;;;21.00;11.00;;;;;;;11.34;63.19;101917.48;1736020;80;26298;-82
2021/10/07 08:07:58;;;;;;;15.20;10.10;;;;;;;11.41;62.75;101925.23;1727504;80;25965;-82
2021/10/07 08:10:25;;;;;;;18.60;9.58;;;;;;;11.45;62.58;101924.77;1737513;82;27450;-81
2021/10/07 08:12:52;;;;;;;21.35;10.25;;;;;;;11.44;62.62;101915.02;1765378;80;25845;-81
2021/10/07 08:15:20;;;;;;;18.57;10.75;;;;;;;11.41;62.09;101927.92;1754387;80;25276;-82
2021/10/07 08:17:47;;;;;;;21.60;10.63;;;;;;;11.41;62.25;101928.77;1690884;82;25906;-82
2021/10/07 08:20:16;;;;;;;17.12;8.55;;;;;;;11.45;62.62;101924.77;1704958;82;25909;-82
2021/10/07 08:22:46;;;;;;;22.27;10.75;;;;;;;11.53;62.43;101924.79;1753128;81;28163;-82
2021/10/07 08:25:13;;;;;;;19.37;8.98;;;;;;;11.60;62.61;101932.55;1713975;82;26006;-83
2021/10/07 08:27:40;;;;;;;14.35;9.45;;;;;;;11.70;62.68;101925.73;1724570;80;25880;-82
2021/10/07 08:30:10;;;;;;;16.73;10.23;;;;;;;11.75;61.40;101933.30;1696964;82;25964;-82
2021/10/07 08:32:37;;;;;;;21.87;10.48;;;;;;;11.68;61.58;101934.94;1764971;80;25276;-82
2021/10/07 08:35:06;;;;;;;15.13;8.03;;;;;;;11.60;61.27;101940.60;1751328;80;27516;-82
2021/10/07 08:37:34;;;;;;;13.62;8.80;;;;;;;11.50;60.99;101941.73;1731463;81;25359;-82
2021/10/07 08:40:03;;;;;;;19.30;9.03;;;;;;;11.39;61.29;101950.05;1706126;82;25951;-82
2021/10/07 08:42:31;;;;;;;18.10;9.83;;;;;;;11.33;61.18;101953.37;1759367;80;25778;-82
2021/10/07 08:44:58;;;;;;;14.78;9.58;;;;;;;11.28;61.56;101956.52;1752770;80;26265;-82
2021/10/07 08:47:25;;;;;;;22.60;9.30;;;;;;;11.32;61.73;101951.67;1711315;80;27429;-82
2021/10/07 08:49:52;;;;;;;17.05;9.43;;;;;;;11.34;61.86;101947.83;1731039;81;25823;-81
2021/10/07 08:52:20;;;;;;;15.72;9.13;;;;;;;11.39;61.92;101950.89;1762423;80;25356;-81
2021/10/07 08:54:48;;;;;;;14.93;9.10;;;;;;;11.46;62.12;101943.05;1718960;80;25947;-82
2021/10/07 08:57:15;;;;;;;16.97;9.98;;;;;;;11.54;61.73;101944.42;1720799;80;26456;-82
2021/10/07 08:59:43;;;;;;;14.55;8.98;;;;;;;11.59;62.05;101952.81;1717749;82;28122;-82
2021/10/07 09:02:26;;;;;;;17.65;9.68;;;;;;;11.59;61.87;101948.30;1764852;80;26030;-82
2021/10/07 09:04:54;;;;;;;17.02;8.85;;;;;;;11.63;62.02;101951.52;1743804;80;25982;-82
2021/10/07 09:07:21;;;;;;;22.65;9.50;;;;;;;11.68;62.09;101944.33;1682965;82;25855;-82
2021/10/07 09:09:50;;;;;;;13.45;8.68;;;;;;;11.72;62.18;101957.27;1712655;82;26023;-83
2021/10/07 09:12:19;;;;;;;20.68;9.55;;;;;;;11.78;61.97;101950.44;1731405;80;27502;-82
2021/10/07 09:14:48;;;;;;;16.20;8.65;;;;;;;11.82;61.30;101949.95;1741464;80;25744;-82
2021/10/07 09:17:19;;;;;;;17.17;9.18;;;;;;;11.88;61.73;101945.27;1735114;80;25401;-82
2021/10/07 09:19:48;;;;;;;15.48;8.25;;;;;;;11.95;61.81;101946.31;1689445;82;25302;-82
2021/10/07 09:22:26;;;;;;;15.28;7.92;;;;;;;12.05;61.96;101949.69;1725398;81;25921;-81
2021/10/07 09:24:57;;;;;;;16.65;8.43;;;;;;;12.10;61.64;101947.34;1733914;80;27061;-82
2021/10/07 09:27:27;;;;;;;19.45;9.13;;;;;;;12.13;61.09;101944.33;1763144;80;25473;-82
2021/10/07 09:30:04;;;;;;;19.90;8.73;;;;;;;12.21;61.02;101946.22;1719853;80;25900;-82
2021/10/07 09:32:42;;;;;;;17.50;9.65;;;;;;;12.28;61.50;101947.22;1761663;80;25908;-82
2021/10/07 09:35:10;;;;;;;19.77;9.08;;;;;;;12.36;61.14;101949.91;1736217;82;25802;-82
2021/10/07 09:37:43;;;;;;;13.10;8.40;;;;;;;12.49;61.56;101953.48;1715325;80;27350;-82
2021/10/07 09:40:22;;;;;;;22.98;10.13;;;;;;;12.61;61.30;101950.30;1718390;82;25837;-83
2021/10/07 09:42:58;;;;;;;19.57;10.08;;;;;;;12.73;60.61;101957.02;1713739;82;25289;-82
2021/10/07 09:45:30;;;;;;;13.65;8.20;;;;;;;12.89;61.14;101958.87;1719349;81;25889;-82
2021/10/07 09:48:07;;;;;;;18.87;9.28;;;;;;;13.05;60.91;101954.84;1746097;79;25866;-82
2021/10/07 09:50:37;;;;;;;18.05;8.05;;;;;;;13.25;60.98;101960.70;1722604;81;27581;-82
2021/10/07 09:53:14;;;;;;;12.93;8.20;;;;;;;13.42;59.94;101965.89;1722967;81;26352;-82
2021/10/07 09:55:48;;;;;;;19.73;9.65;;;;;;;13.53;59.62;101952.56;1753071;80;26491;-82
2021/10/07 09:58:21;;;;;;;22.77;10.10;;;;;;;13.68;59.40;101957.06;1698688;81;25777;-82
2021/10/07 10:00:55;;;;;;;16.15;8.73;;;;;;;13.79;57.48;101950.45;1714286;80;26033;-83
2021/10/07 10:03:24;;;;;;;15.85;8.75;;;;;;;13.84;58.28;101958.83;1731744;82;27588;-82
2021/10/07 10:05:53;;;;;;;16.10;8.00;;;;;;;13.87;57.63;101959.84;1725809;82;25834;-82
2021/10/07 10:08:22;;;;;;;14.87;8.83;;;;;;;13.84;57.85;101959.67;1718193;80;26075;-82
2021/10/07 10:10:53;;;;;;;17.10;8.08;;;;;;;13.89;57.07;101957.31;1709370;80;26282;-82
2021/10/07 10:13:20;;;;;;;18.00;7.55;;;;;;;13.89;57.56;101955.12;1762282;80;25866;-82
2021/10/07 10:15:47;;;;;;;13.78;7.22;;;;;;;13.90;57.55;101955.44;1744625;80;27593;-82
2021/10/07 10:18:16;;;;;;;13.98;7.58;;;;;;;13.90;57.51;101953.59;1709725;82;26517;-82
2021/10/07 10:20:51;;;;;;;16.40;8.68;;;;;;;13.87;57.03;101947.22;1736752;81;25886;-82
2021/10/07 10:23:22;;;;;;;29.25;8.95;;;;;;;13.83;57.08;101954.48;1762404;80;25777;-82
2021/10/07 10:26:06;;;;;;;18.10;9.03;;;;;;;13.80;56.88;101962.39;1736198;81;25784;-82
2021/10/07 10:28:50;;;;;;;12.90;8.28;;;;;;;13.81;57.32;101949.77;1719767;80;28285;-82
2021/10/07 10:31:29;;;;;;;16.57;8.00;;;;;;;13.83;57.14;101947.75;1714762;80;25992;-82
2021/10/07 10:34:08;;;;;;;;;;;;;;;13.88;57.95;101954.27;1764536;80;25781;-82
2021/10/07 10:37:00;;;;;;;19.92;9.95;;;;;;;13.94;57.56;101949.52;1752084;80;25893;-82
2021/10/07 10:39:33;;;;;;;18.55;8.33;;;;;;;13.94;57.51;101954.09;1730781;80;25780;-83
2021/10/07 10:42:19;;;;;;;19.92;8.13;;;;;;;13.98;58.16;101947.84;1719022;80;27513;-82
2021/10/07 10:45:01;;;;;;;14.87;8.10;;;;;;;14.04;56.51;101949.82;1759252;80;26603;-82
2021/10/07 10:47:29;;;;;;;;;;;;;;;14.01;57.27;101948.31;1715431;80;25830;-83
2021/10/07 10:50:11;;;;;;;19.35;7.97;;;;;;;14.07;57.93;101945.44;1715115;81;25993;-82
2021/10/07 10:52:54;;;;;;;13.88;7.72;;;;;;;14.13;58.03;101948.77;1704682;80;25336;-82
2021/10/07 10:55:23;;;;;;;13.28;8.00;;;;;;;14.18;57.79;101945.05;1755733;80;27752;-82
2021/10/07 10:58:04;;;;;;;16.52;7.60;;;;;;;14.24;57.55;101953.23;1708146;80;25755;-82
2021/10/07 11:00:34;;;;;;;13.20;7.77;;;;;;;14.25;56.76;101933.36;1741926;80;25584;-82
2021/10/07 11:03:23;;;;;;;17.35;8.58;;;;;;;14.25;56.76;101933.36;1718042;82;26555;-82
2021/10/07 11:06:02;;;;;;;16.97;7.60;;;;;;;14.35;57.08;101945.30;1729990;80;25814;-82
2021/10/07 11:08:33;;;;;;;15.63;8.48;;;;;;;14.40;57.14;101944.24;1750223;80;27471;-82
2021/10/07 11:11:03;;;;;;;19.00;8.33;;;;;;;14.45;57.17;101948.09;1686726;80;25935;-82
2021/10/07 11:13:35;;;;;;;19.67;7.95;;;;;;;14.53;57.32;101949.38;1763044;80;25829;-82
2021/10/07 11:16:06;;;;;;;15.13;8.05;;;;;;;14.63;57.28;101943.23;1703028;80;25834;-82
2021/10/07 11:18:38;;;;;;;16.48;7.78;;;;;;;14.75;56.58;101947.70;1750122;80;32462;-82
2021/10/07 11:21:12;;;;;;;20.70;7.08;;;;;;;14.83;56.81;101943.57;1763805;80;27390;-82
2021/10/07 11:23:37;;;;;;;14.75;8.18;;;;;;;14.89;56.42;101944.19;1701203;80;25867;-82
2021/10/07 11:26:05;;;;;;;13.90;7.97;;;;;;;14.95;56.24;101936.70;1736513;80;25899;-82
2021/10/07 11:28:36;;;;;;;20.27;8.58;;;;;;;15.01;56.21;101931.92;1746569;80;25728;-82